EDFM Airport Information

Runway Information
Runway 09 Length 3497 ft width 82 ft
Elevation 309 ft Threshold 19 ft Heading 93
Runway 27 Length 3497 ft Width 82 ft
Elevation 306 ft Threshold 174 ft Heading 273
Runway 09L Length 2297 ft width 98 ft
Elevation 0 ft Threshold 246 ft Heading 92
Runway 27R Length 2297 ft Width 98 ft
Elevation 0 ft Threshold 82 ft Heading 272
Airport Frequencies
Type APP Name COLEMAN AP Frequency 130.5 MHZ
Type ATIS Name ATIS Frequency 136.55 MHZ
Type CNTR Name LANGEN RAD Frequency 127.5 MHZ
Type INFO Name INFO Frequency 118.4 MHZ
Type TWR Name TWR Frequency 118.4 MHZ
Type TWR Name COLEMAN TW Frequency 122.1 MHZ
Airport Navaids
Type DME Name Mannheim Frequency 113550 KHZ
Airport Weather Information & NOTAM
ADDS - METARS form results

(1916 UTC 22 September 2018)
Data provider http://aviationweather.gov/metar/data/
 
METAR text: EDFM 221850Z 18003KT 9999 FEW039 OVC082 15/08 Q1020
Conditions at: EDFM (MANNHEIM , DE) observed 1850 UTC 22 September 2018
Temperature: 15.0°C (59°F)
Dewpoint: 8.0°C (46°F) [RH = 63%]
Pressure (altimeter): 30.12 inches Hg (1020.0 mb)
Winds: from the S (180 degrees) at 3 MPH (3 knots; 1.5 m/s)
Visibility: 6 or more miles (10+ km)
Ceiling: 8200 feet AGL
Clouds: few clouds at 3900 feet AGL
overcast cloud deck at 8200 feet AGL
Weather: no significant weather observed at this time

METAR text: EDFM 221820Z VRB03KT CAVOK 15/08 Q1020
Conditions at: EDFM (MANNHEIM , DE) observed 1820 UTC 22 September 2018
Temperature: 15.0°C (59°F)
Dewpoint: 8.0°C (46°F) [RH = 63%]
Pressure (altimeter): 30.12 inches Hg (1020.0 mb)
Winds: variable direction winds at 3 MPH (3 knots; 1.5 m/s)
Visibility: 6 or more miles (10+ km)
Ceiling: ceiling and visibility are OK
Clouds: unknown
Weather: no significant weather observed at this time